UKWW/VIN METAR and TAF weather

Enter ICAO airport designator
Station Type Date Time Source
UKWW METAR 2020/04/02 04:00 UTC NOAA

UKWW 020400Z 22003MPS CAVOK M02/M10 Q1015 NOSIG


Station Type Date Time Source
UKWW Decoded METAR 2020/04/02 04:00 UTC NOAA

Station name not available
Apr 02, 2020 - 12:00 AM EDT / 2020.04.02 0400 UTC
Wind: from the SW (220 degrees) at 7 MPH (6 KT):0
Visibility: greater than 7 mile(s):0
Temperature: 28 F (-2 C)
Windchill: 21 F (-6 C):1
Dew Point: 14 F (-10 C)
Relative Humidity: 54%
Pressure (altimeter): 29.97 in. Hg (1015 hPa)
ob: UKWW 020400Z 22003MPS CAVOK M02/M10 Q1015 NOSIG
cycle: 4

Station Type Date Time Source
UKWW TAF 2010/03/21 10:45 UTC NOAA

TAF UKWW 211045Z 2112/2212 24005G10MPS 9999 SCT020 BKN070
TEMPO 2115/2207 1400 -SHRA BR SCT004 BKN007CB
FM220700 34007G12MPS 9999 SCT015 BKN100 TX11/2112Z TN01/2204Z

Example: see airport list